Terminal Aerodrome Forecast
Issued by NWS Key West, FL

Home | Current Version | Previous Version | Text Only | Print | Product List | Glossary On
Versions: 1 2 3 4 5 6 7 8 9 10 11 12 13 14 15 16 17 18 19 20 21 22 23 24 25 26 27 28 29 30 31 32 33 34 35 36 37 38 39 40 41 42 43 44 45
000
FTUS42 KKEY 041721
TAFEYW
TAF
KEYW 041721Z 0418/0518 09016G25KT P6SM SCT025 BKN060 BKN250
     FM050300 09012G19KT P6SM VCSH SCT020 BKN050 OVC250
      TEMPO 0504/0508 3SM +SHRA BR BKN020 OVC050
     FM051000 09011KT P6SM VCTS SCT020CB OVC050 PROB30 0510/0516 2SM
      +TSRA BR BKN015CB OVC030=

USA.gov is the U.S. government's official web portal to all federal, state and local government web resources and services.